Time;durP1;ratioP1;P1;durP2;ratioP2;P2;SDS_P1;SDS_P2;PMS_P1;PMS_P2;Temp;Humidity;BMP_temperature;BMP_pressure;BME280_temperature;BME280_humidity;BME280_pressure;Samples;Min_cycle;Max_cycle;Signal;HPM_P1;HPM_P2
2021/12/15 00:02:25;;;;;;;90.03;36.23;;;-1.40;99.90;;;;;;5146054;27;20174;-82
2021/12/15 00:04:52;;;;;;;93.20;32.87;;;-0.40;99.90;;;;;;5140475;27;20225;-87
2021/12/15 00:07:20;;;;;;;106.97;37.37;;;-1.30;99.90;;;;;;5145035;27;20154;-82
2021/12/15 00:09:47;;;;;;;84.93;33.90;;;-1.10;99.90;;;;;;5160837;27;20167;-82
2021/12/15 00:12:14;;;;;;;101.70;33.40;;;0.10;99.90;;;;;;5162204;27;20188;-82
2021/12/15 00:14:42;;;;;;;89.07;31.93;;;-1.40;99.90;;;;;;5104251;27;20215;-82
2021/12/15 00:17:08;;;;;;;133.87;47.03;;;-1.50;99.90;;;;;;5119236;27;20218;-82
2021/12/15 00:19:35;;;;;;;138.10;56.43;;;;;;;;;;5118960;27;20176;-81
2021/12/15 00:22:00;;;;;;;97.67;33.20;;;-1.40;99.90;;;;;;5101865;27;20191;-82
2021/12/15 00:24:27;;;;;;;105.90;38.00;;;-1.20;99.90;;;;;;5136977;27;20180;-82
2021/12/15 00:26:54;;;;;;;103.60;33.80;;;-0.40;99.90;;;;;;5119036;27;20218;-82
2021/12/15 00:29:21;;;;;;;101.27;33.87;;;-1.40;99.90;;;;;;5101943;27;20173;-82
2021/12/15 00:31:47;;;;;;;85.27;28.30;;;-1.20;99.90;;;;;;5137631;27;20264;-82
2021/12/15 00:34:14;;;;;;;88.10;28.87;;;-1.00;99.90;;;;;;5101446;27;20512;-82
2021/12/15 00:36:44;;;;;;;99.73;31.13;;;-1.40;99.90;;;;;;5136928;27;20300;-82
2021/12/15 00:39:12;;;;;;;95.17;31.57;;;-1.30;99.90;;;;;;5136556;27;20175;-82
2021/12/15 00:41:39;;;;;;;93.13;30.07;;;-1.30;99.90;;;;;;5118515;27;20271;-82
2021/12/15 00:44:06;;;;;;;88.90;24.97;;;-1.30;99.90;;;;;;5136862;27;20178;-83
2021/12/15 00:46:32;;;;;;;95.40;34.93;;;-1.00;99.90;;;;;;5118447;27;20616;-82
2021/12/15 00:48:58;;;;;;;104.33;39.77;;;-1.20;99.90;;;;;;5117928;27;20275;-83
2021/12/15 00:51:24;;;;;;;96.97;30.23;;;-1.30;99.90;;;;;;5118747;27;20205;-82
2021/12/15 00:53:51;;;;;;;99.80;29.70;;;-1.20;99.90;;;;;;5118911;27;20188;-82
2021/12/15 00:56:17;;;;;;;94.33;27.60;;;-1.30;99.90;;;;;;5118186;27;20343;-82
2021/12/15 00:58:43;;;;;;;91.27;31.07;;;-1.30;99.90;;;;;;5136731;27;20177;-82
2021/12/15 01:01:09;;;;;;;101.87;30.27;;;-1.00;99.90;;;;;;5136068;27;20678;-84
2021/12/15 01:03:35;;;;;;;100.60;28.37;;;-1.20;99.90;;;;;;5136568;27;20178;-82
2021/12/15 01:06:08;;;;;;;82.17;22.17;;;-1.10;99.90;;;;;;5136593;27;20175;-82
2021/12/15 01:08:40;;;;;;;97.90;30.83;;;-1.10;99.90;;;;;;5136513;27;20158;-82
2021/12/15 01:22:04;;;;;;;86.50;29.93;;;-1.10;99.90;;;;;;5120512;27;20200;-82
2021/12/15 01:24:30;;;;;;;96.03;30.23;;;-1.10;99.90;;;;;;5136223;27;20204;-82
2021/12/15 01:26:56;;;;;;;91.33;31.53;;;-1.10;99.90;;;;;;5117964;27;20657;-82
2021/12/15 01:29:21;;;;;;;99.00;33.73;;;-0.70;99.90;;;;;;5100283;27;20177;-82
2021/12/15 01:31:48;;;;;;;86.37;30.00;;;;;;;;;;5117802;27;20260;-82
2021/12/15 01:34:14;;;;;;;81.60;29.90;;;-1.00;99.90;;;;;;5117441;27;20219;-82
2021/12/15 01:36:40;;;;;;;93.60;31.07;;;-1.10;99.90;;;;;;5135571;27;20194;-82
2021/12/15 01:39:06;;;;;;;103.00;32.93;;;-1.10;99.90;;;;;;5117158;27;20200;-82
2021/12/15 01:41:33;;;;;;;101.83;32.33;;;-0.70;99.90;;;;;;5117726;27;20566;-81
2021/12/15 01:46:54;;;;;;;101.10;35.33;;;-1.00;99.90;;;;;;5135777;27;20554;-82
2021/12/15 01:49:51;;;;;;;109.07;36.73;;;-1.00;99.90;;;;;;5117001;27;20639;-82
2021/12/15 01:52:20;;;;;;;121.93;41.43;;;-1.00;99.90;;;;;;5096737;27;20177;-82
2021/12/15 01:54:51;;;;;;;102.93;37.53;;;0.00;99.90;;;;;;5135452;27;20221;-82
2021/12/15 01:57:18;;;;;;;104.07;40.67;;;-0.90;99.90;;;;;;5134775;27;20243;-82
2021/12/15 01:59:46;;;;;;;122.27;42.13;;;-0.90;99.90;;;;;;5117082;27;20176;-82
2021/12/15 02:02:13;;;;;;;110.83;39.57;;;-0.60;99.90;;;;;;5116746;27;20644;-82
2021/12/15 02:04:39;;;;;;;117.03;40.13;;;-0.90;99.90;;;;;;5117217;27;20221;-82
2021/12/15 02:07:07;;;;;;;103.13;38.73;;;-0.90;99.90;;;;;;5117080;27;20186;-82
2021/12/15 02:12:21;;;;;;;110.93;41.77;;;-0.80;99.90;;;;;;5119441;27;20633;-83
2021/12/15 02:14:48;;;;;;;114.73;35.87;;;-0.90;99.90;;;;;;5117447;27;20185;-82
2021/12/15 02:17:14;;;;;;;114.93;42.13;;;0.80;99.90;;;;;;5116375;27;20637;-83
2021/12/15 02:19:39;;;;;;;123.00;42.63;;;-0.80;99.90;;;;;;5134954;27;20215;-82
2021/12/15 02:22:05;;;;;;;111.23;40.93;;;-0.80;99.90;;;;;;5116572;27;20185;-82
2021/12/15 02:24:35;;;;;;;104.17;39.43;;;-0.80;99.90;;;;;;5116380;27;20173;-82
2021/12/15 02:27:02;;;;;;;106.50;42.20;;;-0.60;99.90;;;;;;5100010;27;20235;-82
2021/12/15 02:29:35;;;;;;;120.53;41.77;;;-0.80;99.90;;;;;;5099577;27;20299;-82
2021/12/15 02:32:18;;;;;;;118.97;40.77;;;-0.70;99.90;;;;;;5135054;27;20165;-82
2021/12/15 02:35:07;;;;;;;115.07;40.70;;;-0.70;99.90;;;;;;5134899;27;20167;-82
2021/12/15 02:37:30;;;;;;;110.00;39.30;;;-0.70;99.90;;;;;;5134125;27;20225;-82
2021/12/15 02:40:05;;;;;;;114.13;39.90;;;-0.60;99.90;;;;;;5135153;27;20647;-82
2021/12/15 02:42:38;;;;;;;106.53;38.73;;;-0.70;99.90;;;;;;5134527;27;20186;-82
2021/12/15 02:45:08;;;;;;;93.30;34.07;;;-0.70;99.90;;;;;;5116271;27;20183;-82
2021/12/15 02:47:33;;;;;;;98.67;36.13;;;-0.80;99.90;;;;;;5134413;27;20180;-82
2021/12/15 02:50:00;;;;;;;107.40;37.17;;;-0.80;99.90;;;;;;5099189;27;20514;-82
2021/12/15 02:52:27;;;;;;;95.97;31.17;;;-0.60;99.90;;;;;;5115862;27;20250;-82
2021/12/15 02:54:53;;;;;;;81.07;28.40;;;-0.80;99.90;;;;;;5134545;27;20200;-82
2021/12/15 02:57:19;;;;;;;98.97;34.70;;;;;;;;;;5115752;27;20249;-82
2021/12/15 03:00:15;;;;;;;102.33;34.27;;;-0.80;99.90;;;;;;5134512;27;20632;-82
2021/12/15 03:05:37;;;;;;;99.10;32.87;;;-0.60;99.90;;;;;;5133741;27;20170;-82
2021/12/15 03:08:14;;;;;;;91.97;32.90;;;-0.70;99.90;;;;;;5134115;27;20213;-82
2021/12/15 03:16:15;;;;;;;108.60;35.83;;;-0.70;99.90;;;;;;5134355;28;20179;-85
2021/12/15 03:18:41;;;;;;;54.27;22.87;;;-2.90;99.90;;;;;;5134445;28;20180;-82
2021/12/15 03:21:17;;;;;;;97.37;36.43;;;-0.60;99.90;;;;;;5115550;28;20175;-82
2021/12/15 03:23:51;;;;;;;112.40;35.03;;;-0.60;99.90;;;;;;5134401;28;20255;-82
2021/12/15 03:26:23;;;;;;;105.67;36.47;;;0.50;99.90;;;;;;5133916;28;20168;-82
2021/12/15 03:37:22;;;;;;;97.17;34.10;;;-0.60;99.90;;;;;;5118785;28;20257;-82
2021/12/15 03:40:05;;;;;;;99.63;34.57;;;-0.50;99.90;;;;;;5115835;28;20614;-82
2021/12/15 03:42:41;;;;;;;102.93;38.97;;;-0.40;99.90;;;;;;5115584;28;20237;-82
2021/12/15 03:45:12;;;;;;;93.03;30.23;;;-0.40;99.90;;;;;;5115791;28;20628;-82
2021/12/15 03:47:41;;;;;;;70.33;27.20;;;-0.40;99.90;;;;;;5133459;28;20477;-83
2021/12/15 03:50:12;;;;;;;107.67;35.40;;;-0.50;99.90;;;;;;5133901;28;20170;-82
2021/12/15 03:52:39;;;;;;;110.50;38.17;;;-0.20;99.90;;;;;;5115315;28;20700;-82
2021/12/15 03:55:06;;;;;;;109.37;38.10;;;-0.60;99.90;;;;;;5115269;28;20229;-83
2021/12/15 03:57:32;;;;;;;104.57;37.63;;;-0.40;99.90;;;;;;5098594;28;20210;-83
2021/12/15 03:59:58;;;;;;;108.60;37.23;;;-0.40;99.90;;;;;;5098283;28;20687;-83
2021/12/15 04:02:25;;;;;;;99.80;36.53;;;-0.20;99.90;;;;;;5133648;28;20201;-83
2021/12/15 04:04:53;;;;;;;126.70;40.70;;;-0.30;99.90;;;;;;5133952;28;20174;-82
2021/12/15 04:07:20;;;;;;;128.63;40.47;;;-0.30;99.90;;;;;;5115519;28;20178;-83
2021/12/15 04:09:47;;;;;;;105.27;38.50;;;-0.60;99.90;;;;;;5115686;28;20175;-82
2021/12/15 04:12:14;;;;;;;88.20;27.97;;;-0.30;99.90;;;;;;5115278;28;20536;-83
2021/12/15 04:14:45;;;;;;;107.63;38.07;;;-0.20;99.90;;;;;;5133536;27;20177;-82
2021/12/15 04:17:30;;;;;;;104.50;36.07;;;-0.20;99.90;;;;;;5101758;27;20673;-82
2021/12/15 04:20:08;;;;;;;104.43;36.53;;;-0.20;99.90;;;;;;5137763;27;20161;-82
2021/12/15 04:22:34;;;;;;;115.90;39.23;;;-0.20;99.90;;;;;;5118502;27;20177;-83
2021/12/15 04:25:07;;;;;;;117.03;41.10;;;-0.20;99.90;;;;;;5119214;27;20185;-82
2021/12/15 04:27:33;;;;;;;112.63;37.33;;;-0.20;99.90;;;;;;5136937;27;20171;-83
2021/12/15 04:29:58;;;;;;;125.50;39.93;;;-0.20;99.90;;;;;;5118954;27;20630;-82
2021/12/15 04:32:31;;;;;;;108.40;37.40;;;-0.10;99.90;;;;;;5118426;27;20188;-89
2021/12/15 04:34:57;;;;;;;97.73;35.47;;;-0.10;99.90;;;;;;5137284;27;20187;-83
2021/12/15 04:37:23;;;;;;;114.13;37.67;;;-0.10;99.90;;;;;;5118653;27;20242;-82
2021/12/15 04:39:50;;;;;;;112.73;37.67;;;0.10;99.90;;;;;;5118430;27;20191;-83
2021/12/15 04:42:19;;;;;;;132.23;40.93;;;-0.10;99.90;;;;;;5118546;27;20183;-83
2021/12/15 04:44:45;;;;;;;111.10;39.73;;;0.00;99.90;;;;;;5136747;27;20175;-82
2021/12/15 04:47:12;;;;;;;129.30;44.43;;;0.50;99.90;;;;;;5101541;27;20214;-82
2021/12/15 04:49:46;;;;;;;120.80;41.73;;;0.00;99.90;;;;;;5101251;27;20181;-83
2021/12/15 04:52:13;;;;;;;121.97;42.40;;;0.00;99.90;;;;;;5136947;27;20164;-82
2021/12/15 04:54:40;;;;;;;116.70;39.67;;;0.00;99.90;;;;;;5118001;27;20185;-83
2021/12/15 04:57:07;;;;;;;115.10;38.63;;;0.10;99.90;;;;;;5118329;27;20239;-82
2021/12/15 04:59:33;;;;;;;116.27;36.43;;;0.00;99.90;;;;;;5136259;27;20510;-83
2021/12/15 05:02:00;;;;;;;128.60;39.60;;;0.00;99.90;;;;;;5118226;27;20186;-82
2021/12/15 05:04:25;;;;;;;116.10;38.63;;;0.30;99.90;;;;;;5117875;27;20203;-82
2021/12/15 05:06:51;;;;;;;116.40;37.50;;;0.10;99.90;;;;;;5109088;28;20632;-83
2021/12/15 05:09:18;;;;;;;122.47;37.43;;;0.20;99.90;;;;;;5097294;28;20203;-83
2021/12/15 05:11:47;;;;;;;114.40;36.63;;;0.30;99.90;;;;;;5097345;27;20221;-83
2021/12/15 05:14:14;;;;;;;115.13;36.10;;;0.20;99.90;;;;;;5114637;28;20174;-82
2021/12/15 05:16:40;;;;;;;121.30;37.90;;;0.20;99.90;;;;;;5129003;27;20219;-82
2021/12/15 05:19:07;;;;;;;111.73;35.40;;;0.20;99.90;;;;;;5126819;27;20177;-82
2021/12/15 05:21:33;;;;;;;133.80;39.47;;;0.20;99.90;;;;;;5116624;27;20201;-82
2021/12/15 05:24:07;;;;;;;130.30;39.17;;;0.20;99.90;;;;;;5105705;27;20265;-81
2021/12/15 05:26:33;;;;;;;115.83;36.47;;;0.30;99.90;;;;;;5109825;27;20276;-80
2021/12/15 05:28:59;;;;;;;115.63;38.03;;;0.20;99.90;;;;;;5071507;27;20753;-82
2021/12/15 05:31:25;;;;;;;128.87;38.83;;;0.30;99.90;;;;;;5115306;27;20589;-81
2021/12/15 05:33:51;;;;;;;139.80;39.40;;;0.30;99.90;;;;;;5102608;27;20916;-83
2021/12/15 05:36:16;;;;;;;122.93;38.60;;;0.30;99.90;;;;;;5134363;27;20187;-82
2021/12/15 05:38:42;;;;;;;111.73;35.90;;;0.30;99.90;;;;;;5101373;27;20185;-82
2021/12/15 05:41:08;;;;;;;110.57;35.17;;;0.40;99.90;;;;;;5123285;27;20248;-82
2021/12/15 05:43:34;;;;;;;115.00;35.57;;;0.40;99.90;;;;;;5112390;27;20186;-81
2021/12/15 05:46:00;;;;;;;99.97;32.27;;;0.50;99.90;;;;;;5125172;27;20174;-81
2021/12/15 05:48:26;;;;;;;111.53;34.50;;;0.50;99.90;;;;;;5094942;28;20186;-82
2021/12/15 05:50:51;;;;;;;128.27;37.60;;;0.50;99.90;;;;;;5094541;28;20728;-83
2021/12/15 05:53:19;;;;;;;120.63;39.17;;;0.50;99.90;;;;;;5101589;28;20273;-80
2021/12/15 05:55:45;;;;;;;116.43;37.70;;;0.50;99.90;;;;;;5108515;28;20236;-81
2021/12/15 05:58:11;;;;;;;122.67;36.23;;;0.50;99.90;;;;;;5127316;27;20200;-82
2021/12/15 06:00:40;;;;;;;132.43;37.27;;;0.50;99.90;;;;;;5111084;27;20189;-83
2021/12/15 06:03:06;;;;;;;124.30;39.33;;;0.60;99.90;;;;;;5113044;28;20182;-84
2021/12/15 06:05:33;;;;;;;128.23;37.33;;;0.60;99.90;;;;;;5113586;28;20264;-86
2021/12/15 06:07:59;;;;;;;116.53;35.93;;;0.60;99.90;;;;;;5111439;27;20188;-84
2021/12/15 06:10:27;;;;;;;125.00;37.40;;;0.60;99.90;;;;;;5107531;27;20171;-84
2021/12/15 06:12:55;;;;;;;133.60;37.60;;;0.60;99.90;;;;;;5110306;27;20264;-83
2021/12/15 06:15:23;;;;;;;127.27;36.00;;;0.70;99.90;;;;;;5099293;27;20545;-84
2021/12/15 06:18:01;;;;;;;137.73;37.77;;;0.70;99.90;;;;;;5108070;27;20201;-83
2021/12/15 06:20:28;;;;;;;120.53;34.33;;;0.70;99.90;;;;;;5116412;27;20184;-82
2021/12/15 06:22:55;;;;;;;120.73;34.83;;;;;;;;;;5116308;27;20185;-84
2021/12/15 06:25:22;;;;;;;126.83;34.37;;;0.70;99.90;;;;;;5116599;27;20177;-83
2021/12/15 06:27:49;;;;;;;125.77;35.73;;;0.70;99.90;;;;;;5116401;27;20229;-83
2021/12/15 06:30:14;;;;;;;125.77;36.67;;;0.70;99.90;;;;;;5115966;27;20184;-83
2021/12/15 06:32:41;;;;;;;125.37;35.17;;;0.90;99.90;;;;;;5108509;27;20200;-84
2021/12/15 06:35:08;;;;;;;126.23;34.17;;;0.90;99.90;;;;;;5131221;27;20177;-83
2021/12/15 06:37:35;;;;;;;119.20;32.87;;;0.90;99.90;;;;;;5116672;27;20208;-82
2021/12/15 06:40:01;;;;;;;110.03;31.90;;;0.90;99.90;;;;;;5116003;27;20234;-82
2021/12/15 06:42:27;;;;;;;124.80;35.80;;;0.90;99.90;;;;;;5117688;27;20170;-82
2021/12/15 06:44:55;;;;;;;126.13;34.80;;;1.00;99.90;;;;;;5138651;27;20173;-82
2021/12/15 06:58:23;;;;;;;120.77;33.40;;;1.10;99.90;;;;;;5130468;27;20204;-82
2021/12/15 07:00:54;;;;;;;128.23;34.70;;;1.10;99.90;;;;;;5159485;27;20188;-89
2021/12/15 07:03:21;;;;;;;118.37;33.23;;;1.10;99.90;;;;;;5159494;27;20179;-83
2021/12/15 07:05:47;;;;;;;131.27;34.53;;;1.20;99.90;;;;;;5108795;28;20634;-83
2021/12/15 07:08:14;;;;;;;136.60;35.00;;;1.20;99.90;;;;;;5122858;27;20200;-82
2021/12/15 07:10:45;;;;;;;126.97;36.80;;;1.30;99.90;;;;;;5131602;28;20187;-82
2021/12/15 07:13:13;;;;;;;139.70;37.27;;;1.30;99.90;;;;;;5159437;28;20157;-83
2021/12/15 07:15:40;;;;;;;127.07;38.00;;;1.30;99.90;;;;;;5140934;28;20221;-82
2021/12/15 07:18:10;;;;;;;138.37;40.60;;;1.30;99.90;;;;;;5124034;28;20197;-83
2021/12/15 07:23:20;;;;;;;145.30;43.50;;;1.30;99.90;;;;;;5136126;28;20161;-82
2021/12/15 07:29:08;;;;;;;135.07;40.20;;;;;;;;;;5334818;22;20655;-82
2021/12/15 07:31:34;;;;;;;157.17;44.53;;;;;;;;;;5077324;28;20638;-81
2021/12/15 07:34:00;;;;;;;142.63;38.37;;;;;;;;;;5076883;28;20234;-82
2021/12/15 07:36:26;;;;;;;135.67;40.70;;;1.40;99.90;;;;;;5093725;28;20182;-81
2021/12/15 07:38:54;;;;;;;129.30;37.00;;;1.40;99.90;;;;;;5093387;28;20554;-84
2021/12/15 07:41:27;;;;;;;143.30;38.23;;;1.50;99.90;;;;;;5065480;28;20176;-81
2021/12/15 07:43:54;;;;;;;114.30;36.80;;;1.50;99.90;;;;;;5074395;28;20207;-82
2021/12/15 07:46:20;;;;;;;132.20;36.53;;;1.50;99.90;;;;;;5055611;28;20174;-81
2021/12/15 07:48:46;;;;;;;99.17;33.20;;;1.60;99.90;;;;;;5073705;28;20173;-81
2021/12/15 07:51:13;;;;;;;114.13;34.83;;;1.60;99.90;;;;;;5058212;28;20176;-82
2021/12/15 07:53:41;;;;;;;108.53;34.87;;;1.70;99.90;;;;;;5077522;28;20163;-81
2021/12/15 07:56:07;;;;;;;99.43;33.67;;;1.70;99.90;;;;;;5059738;28;20216;-82
2021/12/15 07:58:33;;;;;;;108.07;34.00;;;1.80;99.90;;;;;;5076714;28;20211;-82
2021/12/15 08:01:01;;;;;;;108.77;32.67;;;1.80;99.90;;;;;;5059730;28;20179;-87
2021/12/15 08:03:28;;;;;;;103.37;31.70;;;1.80;99.90;;;;;;5059363;28;20170;-82
2021/12/15 08:05:54;;;;;;;104.57;35.60;;;1.80;99.90;;;;;;5042473;28;20518;-82
2021/12/15 08:08:21;;;;;;;109.37;35.60;;;1.80;99.90;;;;;;5058716;28;20205;-82
2021/12/15 08:10:47;;;;;;;113.97;35.67;;;1.90;99.90;;;;;;5058544;28;20202;-82
2021/12/15 08:13:15;;;;;;;110.37;34.13;;;;;;;;;;5058564;28;20324;-82
2021/12/15 08:15:42;;;;;;;96.10;34.10;;;1.80;99.90;;;;;;5058640;28;20179;-82
2021/12/15 08:18:08;;;;;;;98.53;32.80;;;1.90;99.90;;;;;;5076228;28;20304;-82
2021/12/15 08:20:36;;;;;;;104.23;32.80;;;2.00;99.90;;;;;;5058492;28;20571;-81
2021/12/15 08:23:03;;;;;;;101.30;33.47;;;1.90;99.90;;;;;;5075878;28;20167;-85
2021/12/15 08:25:31;;;;;;;103.40;32.93;;;1.90;99.90;;;;;;5076207;28;20281;-82
2021/12/15 08:27:58;;;;;;;123.23;36.57;;;2.00;99.90;;;;;;5076321;28;20167;-82
2021/12/15 08:30:28;;;;;;;107.23;34.93;;;1.90;99.90;;;;;;5041290;28;20317;-82
2021/12/15 08:32:57;;;;;;;113.80;34.83;;;2.00;99.90;;;;;;5076183;28;20173;-82
2021/12/15 08:35:30;;;;;;;121.30;34.53;;;2.00;99.90;;;;;;5057892;28;20266;-82
2021/12/15 08:37:56;;;;;;;88.50;28.90;;;2.00;99.90;;;;;;5076103;28;20223;-82
2021/12/15 08:40:24;;;;;;;114.33;33.93;;;2.00;99.90;;;;;;5058099;28;20529;-82
2021/12/15 08:42:49;;;;;;;116.80;34.13;;;2.00;99.90;;;;;;5041914;28;20175;-82
2021/12/15 08:45:16;;;;;;;115.87;38.10;;;2.00;99.90;;;;;;5076056;28;20186;-81
2021/12/15 08:47:42;;;;;;;114.87;35.33;;;2.00;99.90;;;;;;5075829;28;20172;-81
2021/12/15 08:50:12;;;;;;;114.83;37.53;;;2.10;99.90;;;;;;5057618;28;20644;-82
2021/12/15 08:52:38;;;;;;;127.60;37.00;;;2.10;99.90;;;;;;5076530;28;20619;-81
2021/12/15 08:55:06;;;;;;;112.50;35.47;;;2.10;99.90;;;;;;5075776;28;20171;-82
2021/12/15 08:57:32;;;;;;;103.63;35.90;;;2.10;99.90;;;;;;5058076;28;20207;-81
2021/12/15 08:59:57;;;;;;;123.07;39.03;;;2.20;99.90;;;;;;5041033;28;20175;-83
2021/12/15 09:02:23;;;;;;;123.13;36.87;;;2.20;99.90;;;;;;5057253;28;20182;-81
2021/12/15 09:04:49;;;;;;;117.40;34.40;;;2.20;99.90;;;;;;5059588;28;20185;-82
2021/12/15 09:07:15;;;;;;;116.63;35.87;;;2.30;99.90;;;;;;5075230;28;20553;-81
2021/12/15 09:09:41;;;;;;;106.40;34.53;;;2.30;99.90;;;;;;5075675;28;20171;-81
2021/12/15 09:12:08;;;;;;;111.63;34.73;;;2.30;99.90;;;;;;5076721;28;20634;-82
2021/12/15 09:14:34;;;;;;;120.77;35.20;;;2.30;99.90;;;;;;5075395;28;20187;-81
2021/12/15 09:17:01;;;;;;;111.40;33.93;;;2.40;99.90;;;;;;5075079;28;20643;-81
2021/12/15 09:19:27;;;;;;;106.97;35.07;;;2.40;99.90;;;;;;5075042;28;20173;-82
2021/12/15 09:21:55;;;;;;;87.13;30.07;;;2.40;99.90;;;;;;5057287;28;20194;-82
2021/12/15 09:24:22;;;;;;;106.10;35.07;;;2.40;99.90;;;;;;5056989;28;20519;-81
2021/12/15 09:26:48;;;;;;;104.40;34.30;;;2.40;99.90;;;;;;5057283;28;20185;-82
2021/12/15 09:29:14;;;;;;;122.83;36.30;;;2.40;99.90;;;;;;5056670;28;20175;-82
2021/12/15 09:31:40;;;;;;;100.47;32.13;;;2.40;99.90;;;;;;5057213;28;20163;-81
2021/12/15 09:34:11;;;;;;;114.57;34.33;;;2.50;99.90;;;;;;5074702;28;20609;-82
2021/12/15 09:36:38;;;;;;;107.27;32.27;;;2.40;99.90;;;;;;5058899;28;20278;-82
2021/12/15 09:39:15;;;;;;;89.90;30.60;;;2.40;99.90;;;;;;5057738;28;20196;-81
2021/12/15 09:41:42;;;;;;;102.93;34.73;;;2.40;99.90;;;;;;5075775;28;20166;-81
2021/12/15 09:44:11;;;;;;;114.83;34.93;;;2.50;99.90;;;;;;5041300;28;20660;-81
2021/12/15 10:03:01;;;;;;;109.83;36.10;;;2.50;99.90;;;;;;5075940;28;20189;-82
2021/12/15 10:05:43;;;;;;;120.47;38.10;;;2.60;99.90;;;;;;5039498;28;20617;-82
2021/12/15 10:19:47;;;;;;;117.80;34.60;;;2.60;99.90;;;;;;5072990;28;20657;-82
2021/12/15 10:22:29;;;;;;;108.63;32.97;;;2.60;99.90;;;;;;5073383;28;20180;-82
2021/12/15 10:25:12;;;;;;;108.47;35.33;;;2.60;99.90;;;;;;5058236;28;20171;-84
2021/12/15 10:27:56;;;;;;;131.03;38.97;;;2.60;99.90;;;;;;5056323;28;20238;-84
2021/12/15 10:30:25;;;;;;;107.40;34.77;;;2.70;99.90;;;;;;5055530;28;20600;-87
2021/12/15 10:33:04;;;;;;;101.37;33.00;;;2.70;99.90;;;;;;5056475;28;20188;-85
2021/12/15 10:35:32;;;;;;;105.93;32.80;;;2.70;99.90;;;;;;5054519;28;20179;-84
2021/12/15 10:38:31;;;;;;;99.50;34.37;;;2.70;99.90;;;;;;5072748;28;20255;-85
2021/12/15 10:41:21;;;;;;;110.40;33.87;;;2.70;99.90;;;;;;4986791;28;20702;-85
2021/12/15 10:43:59;;;;;;;112.83;34.63;;;2.70;99.90;;;;;;5072735;28;20172;-84
2021/12/15 10:46:32;;;;;;;102.60;32.77;;;2.70;99.90;;;;;;5072978;28;20179;-84
2021/12/15 10:49:00;;;;;;;104.20;31.20;;;2.80;99.90;;;;;;5072753;28;20183;-85
2021/12/15 10:51:29;;;;;;;109.43;34.03;;;2.80;99.90;;;;;;5080916;28;20186;-84
2021/12/15 10:54:05;;;;;;;96.77;33.60;;;2.80;99.90;;;;;;5074863;28;20197;-84
2021/12/15 10:56:36;;;;;;;107.63;34.77;;;2.80;99.90;;;;;;5074897;28;20182;-85
2021/12/15 10:59:12;;;;;;;108.43;33.47;;;2.80;99.90;;;;;;5075388;28;20184;-84
2021/12/15 11:01:38;;;;;;;104.10;34.53;;;2.80;99.90;;;;;;5075441;28;20602;-85
2021/12/15 11:04:19;;;;;;;109.80;35.20;;;2.80;99.90;;;;;;5093388;28;20259;-85
2021/12/15 11:06:45;;;;;;;103.10;34.23;;;2.80;99.90;;;;;;5074504;28;20180;-84
2021/12/15 11:09:17;;;;;;;105.47;35.73;;;2.80;99.90;;;;;;5092533;28;20180;-84
2021/12/15 11:12:07;;;;;;;118.23;39.43;;;2.80;99.90;;;;;;5074082;28;20183;-83
2021/12/15 11:14:40;;;;;;;108.93;37.07;;;2.90;99.90;;;;;;5074301;28;20170;-83
2021/12/15 11:17:14;;;;;;;112.17;34.43;;;2.80;99.90;;;;;;5063467;28;20212;-84
2021/12/15 11:19:45;;;;;;;105.90;34.50;;;2.90;99.90;;;;;;5065723;28;20259;-85
2021/12/15 11:22:49;;;;;;;93.93;33.33;;;2.80;99.90;;;;;;5093186;28;20234;-83
2021/12/15 11:25:23;;;;;;;96.07;33.80;;;2.80;99.90;;;;;;5080557;28;20208;-83
2021/12/15 11:27:55;;;;;;;92.23;31.87;;;2.80;99.90;;;;;;5076213;28;20190;-83
2021/12/15 11:30:29;;;;;;;95.37;33.23;;;2.70;99.90;;;;;;5054954;28;20231;-83
2021/12/15 11:32:57;;;;;;;85.43;29.20;;;2.80;99.90;;;;;;5056530;28;20172;-84
2021/12/15 11:35:28;;;;;;;93.07;31.13;;;2.70;99.90;;;;;;5055505;28;20176;-83
2021/12/15 11:38:05;;;;;;;96.27;30.57;;;2.70;99.90;;;;;;5056218;28;20229;-84
2021/12/15 11:40:40;;;;;;;91.20;29.30;;;2.80;99.90;;;;;;5056313;28;20200;-84
2021/12/15 11:43:08;;;;;;;93.00;28.47;;;2.80;99.90;;;;;;5056548;28;20267;-83
2021/12/15 11:45:39;;;;;;;91.33;30.03;;;2.90;99.90;;;;;;5055014;28;20180;-84
2021/12/15 11:48:13;;;;;;;94.37;30.50;;;2.90;99.90;;;;;;5056671;28;20184;-85
2021/12/15 11:50:42;;;;;;;86.13;31.17;;;2.90;99.90;;;;;;5057921;28;20179;-82
2021/12/15 11:53:22;;;;;;;86.97;29.33;;;2.90;99.90;;;;;;5067815;28;20185;-82
2021/12/15 11:55:49;;;;;;;80.13;29.47;;;2.90;99.90;;;;;;5074964;28;20252;-83
2021/12/15 11:58:14;;;;;;;74.47;27.27;;;2.90;99.90;;;;;;5075413;28;20203;-84
2021/12/15 12:00:40;;;;;;;67.87;25.57;;;2.90;99.90;;;;;;5074957;28;20188;-85
2021/12/15 12:03:06;;;;;;;79.63;28.40;;;3.00;99.90;;;;;;5058172;28;20541;-82
2021/12/15 12:05:35;;;;;;;78.03;28.53;;;3.00;99.90;;;;;;5075778;28;20186;-82
2021/12/15 12:08:07;;;;;;;70.53;28.57;;;2.90;99.90;;;;;;5074723;28;20603;-82
2021/12/15 12:10:45;;;;;;;83.53;27.63;;;2.90;99.90;;;;;;5067827;28;20187;-83
2021/12/15 12:13:21;;;;;;;83.53;29.27;;;2.90;99.90;;;;;;5071398;28;20262;-83
2021/12/15 12:15:49;;;;;;;93.30;29.17;;;2.90;99.90;;;;;;5059020;28;20179;-82
2021/12/15 12:18:18;;;;;;;81.90;29.13;;;2.90;99.90;;;;;;5069684;28;20755;-82
2021/12/15 12:20:54;;;;;;;86.47;30.27;;;2.90;99.90;;;;;;5062073;28;20179;-84
2021/12/15 12:23:27;;;;;;;83.67;30.00;;;3.00;99.90;;;;;;5064569;28;20213;-83
2021/12/15 12:26:01;;;;;;;91.60;29.53;;;3.00;99.90;;;;;;5064173;28;20178;-83
2021/12/15 12:28:30;;;;;;;98.93;32.77;;;2.90;99.90;;;;;;5064611;28;20182;-83
2021/12/15 12:31:00;;;;;;;100.53;30.40;;;3.00;99.90;;;;;;5070747;28;20233;-83
2021/12/15 12:33:27;;;;;;;94.07;32.67;;;3.00;99.90;;;;;;5073954;28;20229;-83
2021/12/15 12:36:02;;;;;;;94.97;31.33;;;3.00;99.90;;;;;;5075035;28;20177;-83
2021/12/15 12:38:29;;;;;;;96.53;32.10;;;3.00;99.90;;;;;;5073654;28;20608;-83
2021/12/15 12:41:11;;;;;;;93.03;32.47;;;3.00;99.90;;;;;;5074174;28;20190;-84
2021/12/15 12:43:39;;;;;;;105.07;34.60;;;3.00;99.90;;;;;;5073609;28;20214;-83
2021/12/15 12:46:16;;;;;;;97.27;35.43;;;3.00;99.90;;;;;;5075097;28;20172;-83
2021/12/15 13:00:27;;;;;;;107.87;33.03;;;2.80;99.90;;;;;;5075410;28;20311;-83
2021/12/15 13:03:01;;;;;;;101.57;34.03;;;2.80;99.90;;;;;;5054460;28;20180;-83
2021/12/15 13:05:46;;;;;;;98.70;35.27;;;2.70;99.90;;;;;;5055102;28;20169;-85
2021/12/15 13:08:28;;;;;;;101.30;34.30;;;2.70;99.90;;;;;;5053783;28;20582;-83
2021/12/15 13:11:02;;;;;;;116.33;37.27;;;2.00;99.90;;;;;;5054819;28;20833;-86
2021/12/15 13:13:49;;;;;;;102.53;36.07;;;2.60;99.90;;;;;;5053794;28;20184;-83
2021/12/15 13:16:27;;;;;;;95.13;33.23;;;2.60;99.90;;;;;;5055271;28;20172;-83
2021/12/15 13:19:00;;;;;;;97.07;33.87;;;2.70;99.90;;;;;;5055441;28;20775;-82
2021/12/15 13:21:43;;;;;;;101.00;35.67;;;2.60;99.90;;;;;;5053939;28;20590;-83
2021/12/15 13:30:49;;;;;;;81.03;31.10;;;2.50;99.90;;;;;;5087890;28;20228;-84
2021/12/15 13:33:28;;;;;;;72.47;29.83;;;2.50;99.90;;;;;;5095696;28;20167;-82
2021/12/15 13:36:02;;;;;;;97.40;34.83;;;2.50;99.90;;;;;;5083705;28;20182;-83
2021/12/15 13:38:38;;;;;;;80.43;31.47;;;2.50;99.90;;;;;;5109153;28;20236;-83
2021/12/15 13:41:26;;;;;;;71.40;27.93;;;2.30;99.90;;;;;;5091999;28;20214;-83
2021/12/15 13:43:56;;;;;;;72.73;28.53;;;2.50;99.90;;;;;;5093179;28;20174;-82
2021/12/15 13:46:22;;;;;;;79.10;30.57;;;2.60;99.90;;;;;;5114485;28;20147;-87
2021/12/15 13:48:57;;;;;;;77.07;26.63;;;2.60;99.90;;;;;;5119097;28;20181;-84
2021/12/15 13:51:52;;;;;;;83.67;29.70;;;2.60;99.90;;;;;;5119702;28;20165;-83
2021/12/15 13:54:33;;;;;;;76.47;28.50;;;2.50;99.90;;;;;;5075705;28;20254;-83
2021/12/15 13:57:22;;;;;;;85.97;29.47;;;2.50;99.90;;;;;;5101662;28;20191;-85
2021/12/15 13:59:51;;;;;;;83.07;29.00;;;2.50;99.90;;;;;;5099073;28;20158;-85
2021/12/15 14:02:19;;;;;;;76.23;29.50;;;2.50;99.90;;;;;;5118380;28;20182;-86
2021/12/15 14:05:05;;;;;;;79.90;28.80;;;2.50;99.90;;;;;;5101508;28;20171;-93
2021/12/15 14:07:35;;;;;;;88.40;30.43;;;2.50;99.90;;;;;;5098187;28;20185;-82
2021/12/15 14:10:11;;;;;;;82.03;28.87;;;2.50;99.90;;;;;;5118873;28;20190;-86
2021/12/15 14:12:46;;;;;;;81.67;28.97;;;2.50;99.90;;;;;;5078022;28;20324;-85
2021/12/15 14:15:36;;;;;;;83.93;30.10;;;2.50;99.90;;;;;;5076338;28;20279;-85
2021/12/15 14:18:12;;;;;;;94.33;29.03;;;2.50;99.90;;;;;;5094308;28;20198;-84
2021/12/15 14:20:55;;;;;;;96.07;32.23;;;2.50;99.90;;;;;;5094797;28;20185;-86
2021/12/15 14:23:31;;;;;;;100.87;31.73;;;2.50;99.90;;;;;;5067063;28;20182;-81